Time;durP1;ratioP1;P1;durP2;ratioP2;P2;SDS_P1;SDS_P2;PMS_P1;PMS_P2;Temp;Humidity;BMP_temperature;BMP_pressure;BME280_temperature;BME280_humidity;BME280_pressure;Samples;Min_cycle;Max_cycle;Signal;HPM_P1;HPM_P2
2023/07/27 00:01:02;;;;;;;6.20;4.28;;;;;;;12.03;90.27;98142.09;5060094;28;20043;-74
2023/07/27 00:03:27;;;;;;;7.10;4.15;;;;;;;12.01;90.00;98133.44;5061364;28;20192;-75
2023/07/27 00:05:53;;;;;;;7.05;3.83;;;;;;;12.14;89.20;98116.81;5090353;28;20039;-77
2023/07/27 00:08:18;;;;;;;7.65;4.68;;;;;;;12.24;88.48;98111.50;5074130;28;20453;-72
2023/07/27 00:10:44;;;;;;;5.53;4.03;;;;;;;12.24;88.82;98116.91;5094462;28;20523;-75
2023/07/27 00:13:09;;;;;;;7.80;4.05;;;;;;;12.41;88.30;98117.59;5082917;28;20021;-75
2023/07/27 00:15:34;;;;;;;5.82;4.38;;;;;;;12.47;87.33;98116.56;5055756;28;20071;-74
2023/07/27 00:18:00;;;;;;;6.95;4.32;;;;;;;12.48;87.73;98112.75;5032555;28;20028;-75
2023/07/27 00:20:25;;;;;;;5.55;3.53;;;;;;;12.55;87.34;98103.66;5090364;28;20067;-74
2023/07/27 00:22:51;;;;;;;5.47;3.72;;;;;;;12.74;86.50;98099.47;5078387;28;20020;-73
2023/07/27 00:25:16;;;;;;;6.07;4.22;;;;;;;12.64;87.02;98104.78;5076938;28;20051;-75
2023/07/27 00:27:41;;;;;;;6.85;4.32;;;;;;;12.55;86.61;98106.34;5075848;28;20033;-73
2023/07/27 00:30:07;;;;;;;4.93;3.53;;;;;;;12.56;87.16;98107.97;5053931;28;20032;-72
2023/07/27 00:32:32;;;;;;;7.45;3.60;;;;;;;12.49;87.71;98095.50;5074891;28;20017;-76
2023/07/27 00:34:59;;;;;;;5.13;4.13;;;;;;;12.72;86.96;98093.50;5071140;28;20025;-76
2023/07/27 00:37:25;;;;;;;6.45;3.70;;;;;;;12.46;88.21;98098.72;5051294;28;20028;-77
2023/07/27 00:39:50;;;;;;;6.90;4.30;;;;;;;12.33;88.87;98099.16;5093151;28;20032;-76
2023/07/27 00:42:15;;;;;;;5.82;4.88;;;;;;;12.38;88.73;98091.09;5057892;28;20032;-76
2023/07/27 00:44:41;;;;;;;7.07;4.30;;;;;;;12.39;89.49;98108.13;5058931;28;20033;-74
2023/07/27 00:47:07;;;;;;;10.15;4.18;;;;;;;12.42;88.56;98113.81;5074299;28;20082;-77
2023/07/27 00:49:32;;;;;;;7.30;4.13;;;;;;;12.46;89.11;98122.22;5060537;28;20054;-73
2023/07/27 00:51:58;;;;;;;6.07;4.30;;;;;;;12.76;87.19;98116.22;5095787;28;20016;-73
2023/07/27 00:54:24;;;;;;;6.82;4.57;;;;;;;12.71;87.53;98127.00;5062198;28;20036;-73
2023/07/27 00:56:49;;;;;;;5.18;3.92;;;;;;;13.01;86.31;98114.50;5087430;28;20032;-73
2023/07/27 00:59:14;;;;;;;6.75;4.28;;;;;;;12.58;88.31;98127.44;5059720;28;20509;-73
2023/07/27 01:01:40;;;;;;;7.05;4.30;;;;;;;12.98;87.72;98119.59;5074883;28;20428;-73
2023/07/27 01:04:05;;;;;;;6.32;4.38;;;;;;;12.54;89.42;98113.63;5081737;28;20070;-72
2023/07/27 01:06:31;;;;;;;5.50;4.10;;;;;;;12.78;90.26;98105.97;5073315;28;20080;-72
2023/07/27 01:08:56;;;;;;;6.55;4.50;;;;;;;12.66;90.29;98110.75;5089742;28;20040;-72
2023/07/27 01:11:37;;;;;;;6.50;4.32;;;;;;;12.74;91.70;98096.75;5097441;28;20077;-73
2023/07/27 01:14:20;;;;;;;6.82;4.93;;;;;;;12.99;92.02;98086.09;5097213;28;20070;-72
2023/07/27 01:17:05;;;;;;;7.45;5.10;;;;;;;12.65;93.49;98068.59;5063718;28;20060;-73
2023/07/27 01:19:37;;;;;;;7.95;4.72;;;;;;;12.83;92.76;98062.75;5043769;28;20659;-73
2023/07/27 01:22:30;;;;;;;6.68;5.10;;;;;;;13.10;91.83;98049.94;5070583;28;20170;-73
2023/07/27 01:25:26;;;;;;;8.00;5.28;;;;;;;12.78;92.56;98058.16;5072705;28;20039;-74
2023/07/27 01:28:32;;;;;;;7.88;5.32;;;;;;;12.85;92.76;98055.19;5052274;28;20384;-73
2023/07/27 01:31:05;;;;;;;7.93;5.32;;;;;;;12.72;91.85;98047.56;5032762;28;20044;-75
2023/07/27 01:33:34;;;;;;;7.93;5.20;;;;;;;12.68;92.45;98051.84;5071142;28;20039;-74
2023/07/27 01:36:20;;;;;;;9.20;5.13;;;;;;;12.67;92.14;98051.03;5050725;28;20020;-74
2023/07/27 01:38:47;;;;;;;7.95;6.25;;;;;;;12.71;92.21;98054.03;5074671;28;20034;-75
2023/07/27 01:41:15;;;;;;;10.23;5.90;;;;;;;12.60;91.91;98038.84;5092623;28;20084;-75
2023/07/27 01:43:41;;;;;;;7.35;5.43;;;;;;;12.57;91.81;98034.78;5065290;28;20032;-76
2023/07/27 01:46:07;;;;;;;9.18;5.88;;;;;;;12.54;93.27;98037.19;5040377;28;20024;-76
2023/07/27 01:48:33;;;;;;;10.90;6.25;;;;;;;12.72;92.44;98045.66;5058361;28;20047;-76
2023/07/27 01:50:59;;;;;;;10.15;5.78;;;;;;;12.72;92.20;98021.34;5042259;28;20548;-77
2023/07/27 01:53:26;;;;;;;7.07;5.20;;;;;;;12.83;92.09;98043.84;5055853;28;20031;-77
2023/07/27 01:55:52;;;;;;;10.07;5.68;;;;;;;12.83;91.96;98022.22;5055766;28;20036;-76
2023/07/27 01:58:18;;;;;;;7.40;5.53;;;;;;;12.78;92.06;98033.00;5052061;28;20029;-75
2023/07/27 02:00:44;;;;;;;7.85;5.28;;;;;;;12.61;92.36;98030.47;5066272;28;20399;-75
2023/07/27 02:03:10;;;;;;;8.13;5.35;;;;;;;12.66;91.94;98029.69;5061442;28;20072;-75
2023/07/27 02:05:35;;;;;;;7.43;5.15;;;;;;;12.67;92.26;98023.22;5070893;28;20020;-75
2023/07/27 02:08:01;;;;;;;8.68;5.10;;;;;;;12.58;92.59;98024.78;5074313;28;20171;-75
2023/07/27 02:10:27;;;;;;;7.05;5.28;;;;;;;12.54;92.85;98012.88;5073984;28;20028;-75
2023/07/27 02:12:58;;;;;;;6.85;5.03;;;;;;;12.64;91.76;98011.06;5061443;28;20548;-76
2023/07/27 02:15:32;;;;;;;10.05;5.07;;;;;;;12.69;91.62;98005.69;5045871;28;20039;-73
2023/07/27 02:18:08;;;;;;;6.22;4.53;;;;;;;12.64;90.99;98018.34;5041869;28;20044;-74
2023/07/27 02:20:35;;;;;;;10.43;5.28;;;;;;;12.69;91.35;98005.69;5050274;28;20584;-73
2023/07/27 02:23:02;;;;;;;7.35;4.90;;;;;;;12.61;91.72;97997.25;5049893;28;20483;-74
2023/07/27 02:25:28;;;;;;;6.35;4.70;;;;;;;12.48;91.72;97998.53;5050348;28;20033;-73
2023/07/27 02:27:54;;;;;;;5.35;4.53;;;;;;;12.53;91.38;98006.66;5066216;28;20020;-73
2023/07/27 02:30:19;;;;;;;5.90;4.72;;;;;;;12.73;90.74;98006.78;5053579;28;20037;-73
2023/07/27 02:32:45;;;;;;;7.10;5.00;;;;;;;12.21;92.12;98004.00;5054051;28;20510;-73
2023/07/27 02:35:10;;;;;;;7.25;5.18;;;;;;;12.18;93.00;97999.13;5054208;28;20419;-72
2023/07/27 02:37:36;;;;;;;9.20;5.13;;;;;;;12.13;92.92;97985.63;5074145;28;20158;-73
2023/07/27 02:40:01;;;;;;;7.90;5.15;;;;;;;12.25;92.33;97993.53;5076226;28;20047;-73
2023/07/27 02:42:28;;;;;;;8.10;5.25;;;;;;;12.39;92.16;97994.69;5061048;28;20115;-72
2023/07/27 02:44:53;;;;;;;6.45;4.90;;;;;;;12.47;92.23;97981.50;5072477;28;20039;-74
2023/07/27 02:47:18;;;;;;;9.40;4.78;;;;;;;12.41;92.53;97998.78;5095521;28;20089;-73
2023/07/27 02:49:45;;;;;;;8.43;5.20;;;;;;;12.38;92.46;97988.47;5095146;28;20032;-73
2023/07/27 02:52:10;;;;;;;7.05;4.75;;;;;;;12.22;91.92;97991.34;5078459;28;20501;-74
2023/07/27 02:54:36;;;;;;;7.60;4.93;;;;;;;11.84;92.74;97983.47;5047902;28;20036;-74
2023/07/27 02:57:02;;;;;;;6.60;5.10;;;;;;;11.69;93.75;97995.75;5082664;28;20390;-74
2023/07/27 02:59:35;;;;;;;7.53;5.07;;;;;;;11.75;93.55;97993.94;5055084;28;20032;-72
2023/07/27 03:02:01;;;;;;;7.65;5.25;;;;;;;11.85;93.97;97999.44;5066334;28;20513;-72
2023/07/27 03:04:31;;;;;;;9.77;5.60;;;;;;;11.76;94.01;97998.28;5064907;28;20020;-72
2023/07/27 03:06:57;;;;;;;7.50;5.18;;;;;;;11.55;95.44;98005.31;5061048;28;20089;-72
2023/07/27 03:09:23;;;;;;;8.45;6.13;;;;;;;11.69;95.50;98000.38;5040311;28;20028;-72
2023/07/27 03:11:49;;;;;;;9.60;5.93;;;;;;;11.74;94.58;98000.38;5073788;28;20048;-72
2023/07/27 03:14:15;;;;;;;8.65;5.50;;;;;;;11.68;94.79;97990.63;5087378;28;20429;-71
2023/07/27 03:16:40;;;;;;;9.63;5.32;;;;;;;11.48;95.39;97993.13;5053606;28;20606;-71
2023/07/27 03:19:05;;;;;;;9.10;5.32;;;;;;;11.61;95.83;97998.09;5073175;28;20020;-72
2023/07/27 03:21:31;;;;;;;7.75;5.95;;;;;;;11.46;95.69;97996.06;5053001;28;20064;-71
2023/07/27 03:23:57;;;;;;;8.00;5.45;;;;;;;11.62;94.80;97994.34;5056600;28;20470;-71
2023/07/27 03:26:22;;;;;;;8.10;5.53;;;;;;;11.69;94.51;97990.38;5052891;28;20040;-71
2023/07/27 03:28:47;;;;;;;7.78;5.53;;;;;;;11.81;93.76;97975.91;5075321;28;20032;-73
2023/07/27 03:31:24;;;;;;;9.45;6.00;;;;;;;11.96;93.11;97984.13;5073795;28;20569;-73
2023/07/27 03:33:50;;;;;;;10.75;8.50;;;;;;;12.06;92.41;97984.22;5058534;28;20055;-73
2023/07/27 03:36:17;;;;;;;9.38;7.78;;;;;;;11.93;91.81;97980.06;5055753;28;20037;-72
2023/07/27 03:38:43;;;;;;;9.60;7.95;;;;;;;11.93;92.42;97993.53;5054511;28;20063;-71
2023/07/27 03:41:09;;;;;;;10.23;7.95;;;;;;;11.93;92.17;97980.06;5053733;28;20047;-72
2023/07/27 03:43:34;;;;;;;10.10;8.35;;;;;;;12.03;91.86;97990.94;5068646;28;20040;-74
2023/07/27 03:45:59;;;;;;;13.05;9.00;;;;;;;12.11;91.12;97982.34;5054329;28;20042;-74
2023/07/27 03:48:25;;;;;;;10.07;7.40;;;;;;;12.17;91.15;97978.63;5078035;28;20039;-76
2023/07/27 03:50:52;;;;;;;9.23;7.30;;;;;;;12.07;90.78;97970.44;5061587;28;20411;-76
2023/07/27 03:53:17;;;;;;;9.63;7.63;;;;;;;12.18;91.27;97977.53;5064529;28;20063;-73
2023/07/27 03:55:43;;;;;;;8.63;7.50;;;;;;;12.29;91.19;97987.34;5077084;28;20031;-73
2023/07/27 03:58:08;;;;;;;9.95;7.93;;;;;;;12.33;90.68;97974.94;5077931;28;20040;-74
2023/07/27 04:00:34;;;;;;;9.23;7.32;;;;;;;12.33;91.11;97974.94;5062106;28;20020;-72
2023/07/27 04:02:59;;;;;;;8.77;6.80;;;;;;;12.41;90.52;97971.75;5060409;28;20039;-74
2023/07/27 04:05:25;;;;;;;9.27;7.43;;;;;;;12.27;90.04;97965.19;5092848;28;20019;-75
2023/07/27 04:07:51;;;;;;;9.05;6.82;;;;;;;12.35;89.84;97966.56;5093192;28;20040;-75
2023/07/27 04:10:17;;;;;;;9.18;7.18;;;;;;;12.32;89.85;97961.72;5075276;28;20489;-73
2023/07/27 04:12:43;;;;;;;9.88;7.13;;;;;;;12.43;89.90;97958.81;5052412;28;20025;-74
2023/07/27 04:15:09;;;;;;;8.05;6.75;;;;;;;12.49;88.74;97957.75;5067333;28;20024;-72
2023/07/27 04:17:34;;;;;;;8.77;6.70;;;;;;;12.63;88.96;97963.47;5072673;28;20115;-72
2023/07/27 04:20:00;;;;;;;8.18;6.00;;;;;;;12.71;87.97;97964.88;5072273;28;20028;-71
2023/07/27 04:22:25;;;;;;;8.40;6.40;;;;;;;12.76;88.02;97962.19;5081466;28;20081;-73
2023/07/27 04:24:51;;;;;;;7.03;6.00;;;;;;;12.72;87.74;97963.81;5062819;28;20042;-74
2023/07/27 04:27:16;;;;;;;7.80;6.60;;;;;;;12.63;88.57;97968.06;5063925;28;20043;-72
2023/07/27 04:29:41;;;;;;;7.65;6.30;;;;;;;12.70;88.09;97957.84;5074855;28;20024;-76
2023/07/27 04:32:08;;;;;;;7.10;6.40;;;;;;;12.70;88.52;97963.22;5061662;28;20029;-75
2023/07/27 04:34:33;;;;;;;10.05;6.78;;;;;;;12.89;89.37;97961.69;5071258;28;20091;-75
2023/07/27 04:36:59;;;;;;;8.27;6.47;;;;;;;13.16;87.83;97954.28;5051683;28;20040;-75
2023/07/27 04:39:24;;;;;;;7.22;6.18;;;;;;;13.26;87.42;97948.88;5078996;28;20048;-72
2023/07/27 04:41:50;;;;;;;8.68;5.97;;;;;;;13.30;87.15;97952.69;5076136;28;20484;-74
2023/07/27 04:44:15;;;;;;;13.75;5.80;;;;;;;13.46;86.81;97953.50;5061796;28;20032;-74
2023/07/27 04:46:40;;;;;;;7.32;5.63;;;;;;;13.31;85.16;97931.84;5045422;28;20044;-73
2023/07/27 04:49:09;;;;;;;8.07;5.80;;;;;;;13.48;84.96;97945.94;5075238;28;20035;-75
2023/07/27 04:51:34;;;;;;;6.93;5.93;;;;;;;13.55;86.63;97944.59;5074663;28;20032;-76
2023/07/27 04:54:01;;;;;;;8.18;6.07;;;;;;;13.48;85.97;97943.22;5057166;28;20028;-75
2023/07/27 04:56:26;;;;;;;8.07;5.53;;;;;;;13.50;85.01;97936.47;5071148;28;20036;-75
2023/07/27 04:58:52;;;;;;;9.95;6.20;;;;;;;13.63;84.74;97935.91;5069771;28;20016;-75
2023/07/27 05:01:17;;;;;;;8.30;5.80;;;;;;;13.58;85.99;97930.50;5070420;28;20399;-76
2023/07/27 05:03:43;;;;;;;7.10;5.88;;;;;;;13.59;86.07;97929.44;5067359;28;20022;-76
2023/07/27 05:06:08;;;;;;;7.95;5.60;;;;;;;13.67;85.23;97917.25;5061048;28;20035;-76
2023/07/27 05:08:33;;;;;;;8.20;5.50;;;;;;;13.53;86.18;97919.69;5078791;28;20035;-75
2023/07/27 05:10:59;;;;;;;8.68;5.97;;;;;;;13.57;85.27;97918.06;5074223;28;20036;-75
2023/07/27 05:13:24;;;;;;;7.25;5.28;;;;;;;13.58;85.30;97913.47;5056926;28;20029;-75
2023/07/27 05:15:50;;;;;;;7.95;5.40;;;;;;;13.48;85.36;97914.28;5084303;28;20459;-74
2023/07/27 05:18:15;;;;;;;7.93;5.28;;;;;;;13.58;85.12;97916.19;5050198;28;20032;-76
2023/07/27 05:20:40;;;;;;;7.78;5.50;;;;;;;13.67;83.82;97903.72;5077149;28;20401;-76
2023/07/27 05:23:06;;;;;;;10.15;5.25;;;;;;;13.73;84.08;97914.28;5057374;28;20287;-74
2023/07/27 05:25:31;;;;;;;7.50;5.03;;;;;;;13.57;84.21;97909.97;5070352;28;20059;-74
2023/07/27 05:27:57;;;;;;;5.78;5.20;;;;;;;13.98;83.54;97904.53;5071722;28;20036;-74
2023/07/27 05:30:22;;;;;;;7.40;4.90;;;;;;;13.78;82.44;97898.03;5043052;28;20410;-75
2023/07/27 05:32:47;;;;;;;9.77;4.60;;;;;;;13.94;81.96;97898.00;5061338;28;20109;-77
2023/07/27 05:35:13;;;;;;;5.38;4.82;;;;;;;14.06;83.36;97895.81;5064183;28;20032;-76
2023/07/27 05:37:39;;;;;;;8.23;4.70;;;;;;;13.88;82.54;97911.56;5069613;28;20081;-75
2023/07/27 05:40:05;;;;;;;6.00;4.72;;;;;;;14.10;83.06;97913.16;5084986;28;20047;-75
2023/07/27 05:42:31;;;;;;;6.80;5.13;;;;;;;13.91;81.49;97910.19;5082974;28;20020;-74
2023/07/27 05:44:56;;;;;;;5.57;4.53;;;;;;;14.18;82.44;97910.72;5060199;28;20070;-72
2023/07/27 05:47:22;;;;;;;5.38;4.72;;;;;;;14.23;82.12;97901.75;5079475;28;20017;-75
2023/07/27 05:49:47;;;;;;;5.63;4.55;;;;;;;14.01;81.83;97907.47;5070661;28;20047;-77
2023/07/27 05:52:12;;;;;;;6.47;4.95;;;;;;;14.18;81.00;97909.91;5066742;28;20104;-75
2023/07/27 05:54:38;;;;;;;7.72;4.38;;;;;;;14.20;80.49;97913.13;5077944;28;20032;-76
2023/07/27 05:57:03;;;;;;;5.80;4.63;;;;;;;14.39;80.79;97908.78;5058787;28;20028;-76
2023/07/27 05:59:29;;;;;;;5.63;4.70;;;;;;;14.24;81.61;97915.03;5062247;28;20469;-76
2023/07/27 06:01:54;;;;;;;6.18;4.68;;;;;;;14.28;80.85;97909.88;5053192;28;20040;-76
2023/07/27 06:04:20;;;;;;;5.63;4.65;;;;;;;14.38;80.59;97904.44;5063133;28;20040;-76
2023/07/27 06:06:46;;;;;;;5.72;4.57;;;;;;;14.30;80.25;97899.59;5074014;28;20473;-77
2023/07/27 06:09:12;;;;;;;5.22;4.68;;;;;;;14.29;79.76;97901.47;5043904;28;20405;-77
2023/07/27 06:11:37;;;;;;;6.82;4.65;;;;;;;14.24;80.23;97903.38;5042271;28;20029;-76
2023/07/27 06:14:03;;;;;;;5.45;4.57;;;;;;;14.46;80.03;97920.16;5068770;28;20466;-76
2023/07/27 06:16:28;;;;;;;6.55;4.57;;;;;;;14.60;80.16;97912.22;5063537;28;20027;-76
2023/07/27 06:18:54;;;;;;;5.25;4.35;;;;;;;14.39;79.15;97911.50;5042126;28;20599;-76
2023/07/27 06:21:19;;;;;;;9.55;4.65;;;;;;;14.34;80.16;97916.94;5061295;28;20099;-76
2023/07/27 06:23:45;;;;;;;7.32;4.70;;;;;;;14.15;80.04;97921.25;5083449;28;20039;-76
2023/07/27 06:26:10;;;;;;;5.07;4.20;;;;;;;14.21;80.30;97931.03;5054283;28;20390;-76
2023/07/27 06:28:36;;;;;;;6.20;4.60;;;;;;;14.30;80.56;97919.38;5053106;28;20139;-75
2023/07/27 06:31:02;;;;;;;6.28;4.75;;;;;;;14.17;80.13;97919.09;5080286;28;20385;-78
2023/07/27 06:33:27;;;;;;;6.03;4.45;;;;;;;14.46;80.28;97918.25;5069868;28;20119;-76
2023/07/27 06:35:53;;;;;;;6.55;4.82;;;;;;;14.61;80.26;97916.59;5064382;28;20169;-74
2023/07/27 06:38:18;;;;;;;7.13;4.60;;;;;;;14.82;80.38;97921.63;5043247;28;20036;-74
2023/07/27 06:40:44;;;;;;;5.93;4.60;;;;;;;14.50;80.24;97918.50;5090211;28;20020;-73
2023/07/27 06:43:09;;;;;;;6.00;4.68;;;;;;;14.68;80.38;97923.31;5072114;28;20032;-74
2023/07/27 06:45:35;;;;;;;7.53;4.88;;;;;;;14.50;79.99;97915.78;5049961;28;20449;-74
2023/07/27 06:48:02;;;;;;;7.60;4.80;;;;;;;14.48;80.00;97901.72;5036583;28;20041;-74
2023/07/27 06:50:28;;;;;;;6.50;4.60;;;;;;;14.70;80.40;97907.59;5080985;28;20063;-74
2023/07/27 06:52:53;;;;;;;6.03;4.72;;;;;;;14.52;80.51;97911.72;5076139;28;20040;-74
2023/07/27 06:55:18;;;;;;;5.13;4.55;;;;;;;14.70;80.06;97910.31;5060539;28;20106;-73
2023/07/27 06:57:44;;;;;;;5.97;5.00;;;;;;;14.75;79.99;97899.41;5070647;28;20525;-74
2023/07/27 07:00:10;;;;;;;9.43;4.70;;;;;;;14.83;79.93;97889.91;5052802;28;20024;-74
2023/07/27 07:02:35;;;;;;;8.93;4.80;;;;;;;14.72;80.24;97889.16;5069149;28;20048;-73
2023/07/27 07:05:01;;;;;;;265.80;241.00;;;;;;;14.84;79.91;97892.31;5052254;28;20028;-74
2023/07/27 07:07:26;;;;;;;6.57;3.00;;;;;;;14.96;79.17;97890.09;5052806;28;20040;-74
2023/07/27 07:09:52;;;;;;;10.18;3.92;;;;;;;14.57;80.55;97897.34;5052730;28;20055;-76
2023/07/27 07:12:18;;;;;;;4.95;4.45;;;;;;;14.74;82.61;97900.53;5074197;28;20032;-76
2023/07/27 07:14:43;;;;;;;5.03;4.53;;;;;;;14.52;80.26;97890.03;5079252;28;20390;-75
2023/07/27 07:17:08;;;;;;;6.35;3.90;;;;;;;14.70;80.39;97895.94;5086468;28;20037;-76
2023/07/27 07:19:34;;;;;;;8.65;7.85;;;;;;;15.02;81.13;97885.47;5073076;28;20028;-76
2023/07/27 07:21:59;;;;;;;6.50;4.40;;;;;;;15.00;80.79;97888.47;5077573;28;20122;-75
2023/07/27 07:24:25;;;;;;;8.65;7.15;;;;;;;15.17;81.98;97886.16;5093005;28;20028;-76
2023/07/27 07:26:50;;;;;;;6.88;5.70;;;;;;;15.29;80.55;97876.88;5072710;28;20119;-76
2023/07/27 07:29:16;;;;;;;6.97;4.80;;;;;;;15.26;80.67;97878.28;5082731;28;20540;-76
2023/07/27 07:31:41;;;;;;;7.78;4.60;;;;;;;15.34;80.99;97876.84;5075629;28;20047;-76
2023/07/27 07:34:06;;;;;;;6.18;5.05;;;;;;;15.14;79.60;97870.47;5065688;28;20165;-76
2023/07/27 07:36:32;;;;;;;9.35;4.88;;;;;;;14.91;80.90;97883.91;5086404;28;20036;-75
2023/07/27 07:38:57;;;;;;;5.65;4.68;;;;;;;15.01;81.35;97879.22;5082405;28;20363;-76
2023/07/27 07:41:23;;;;;;;11.93;5.05;;;;;;;14.73;80.29;97881.81;5073140;28;20037;-75
2023/07/27 07:43:48;;;;;;;7.65;4.97;;;;;;;14.78;82.04;97879.91;5072543;28;20028;-75
2023/07/27 07:46:14;;;;;;;8.07;4.93;;;;;;;14.75;82.34;97883.16;5085741;28;20123;-76
2023/07/27 07:48:39;;;;;;;6.10;5.45;;;;;;;14.57;83.06;97880.25;5065347;28;20046;-76
2023/07/27 07:51:14;;;;;;;7.78;5.53;;;;;;;14.41;84.73;97884.94;5061764;28;20043;-76
2023/07/27 07:53:40;;;;;;;9.55;6.55;;;;;;;14.57;85.75;97881.06;5061831;28;20033;-76
2023/07/27 07:56:12;;;;;;;8.40;6.35;;;;;;;14.46;85.19;97879.50;5065912;28;20025;-76
2023/07/27 07:58:38;;;;;;;8.50;6.50;;;;;;;14.62;85.24;97878.34;5072475;28;20043;-76
2023/07/27 08:01:03;;;;;;;6.53;5.78;;;;;;;14.54;86.08;97868.06;5086422;28;20025;-77
2023/07/27 08:03:28;;;;;;;8.63;5.65;;;;;;;14.42;86.19;97867.59;5066930;28;20043;-76
2023/07/27 08:05:54;;;;;;;8.52;6.28;;;;;;;14.50;87.46;97877.84;5079144;28;20654;-76
2023/07/27 08:08:19;;;;;;;7.45;6.05;;;;;;;14.58;86.74;97879.19;5081346;28;20051;-76
2023/07/27 08:10:44;;;;;;;6.75;5.38;;;;;;;14.55;87.18;97867.00;5065792;28;20021;-77
2023/07/27 08:13:10;;;;;;;7.60;5.43;;;;;;;14.68;88.32;97873.72;5052365;28;20170;-77
2023/07/27 08:15:35;;;;;;;9.45;5.50;;;;;;;14.76;87.57;97871.25;5065801;28;20538;-76
2023/07/27 08:18:01;;;;;;;8.57;6.07;;;;;;;14.71;88.05;97876.69;5073799;28;20122;-77
2023/07/27 08:20:27;;;;;;;7.32;5.32;;;;;;;14.79;87.53;97873.41;5080205;28;20077;-76
2023/07/27 08:22:52;;;;;;;6.60;5.10;;;;;;;14.97;86.71;97867.31;5081270;28;20037;-76
2023/07/27 08:25:17;;;;;;;7.65;5.15;;;;;;;15.05;86.54;97869.44;5059379;28;20028;-76
2023/07/27 08:27:43;;;;;;;7.00;5.20;;;;;;;15.09;86.02;97867.78;5064267;28;20036;-77
2023/07/27 08:30:08;;;;;;;10.10;5.93;;;;;;;15.28;87.06;97858.97;5076852;28;20054;-76
2023/07/27 08:32:34;;;;;;;6.68;5.60;;;;;;;15.23;85.09;97857.94;5078024;28;20445;-73
2023/07/27 08:34:59;;;;;;;6.78;5.70;;;;;;;15.37;86.22;97860.00;5071748;28;20027;-75
2023/07/27 08:37:25;;;;;;;7.57;5.20;;;;;;;15.70;84.92;97846.44;5051587;28;20376;-75
2023/07/27 08:39:50;;;;;;;8.32;4.95;;;;;;;15.47;85.53;97851.81;5062009;28;20024;-75
2023/07/27 08:42:15;;;;;;;9.20;4.93;;;;;;;15.37;86.42;97846.44;5071526;28;20119;-75
2023/07/27 08:44:43;;;;;;;7.60;5.15;;;;;;;15.57;87.02;97835.41;5072237;28;20024;-76
2023/07/27 08:47:09;;;;;;;5.68;4.93;;;;;;;15.54;85.46;97846.88;5051796;28;20094;-76
2023/07/27 08:49:35;;;;;;;5.43;4.68;;;;;;;15.52;85.70;97840.91;5051338;28;20425;-76
2023/07/27 08:52:00;;;;;;;8.50;5.03;;;;;;;15.66;85.62;97844.59;5054784;28;20040;-75
2023/07/27 08:54:26;;;;;;;6.22;4.55;;;;;;;15.56;85.58;97839.25;5071043;28;20021;-76
2023/07/27 08:56:51;;;;;;;8.48;4.78;;;;;;;15.48;86.46;97837.13;5082722;28;20085;-77
2023/07/27 08:59:16;;;;;;;5.40;4.13;;;;;;;15.78;85.20;97826.00;5060896;28;20520;-76
2023/07/27 09:01:42;;;;;;;6.40;4.53;;;;;;;15.55;85.45;97824.03;5044776;28;20044;-76
2023/07/27 09:04:07;;;;;;;6.35;4.75;;;;;;;15.90;85.66;97832.66;5067226;28;20033;-76
2023/07/27 09:06:37;;;;;;;5.88;4.90;;;;;;;15.75;86.05;97832.03;5063693;28;20036;-75
2023/07/27 09:09:12;;;;;;;6.85;4.55;;;;;;;15.84;85.83;97835.72;5077678;28;20103;-76
2023/07/27 09:11:39;;;;;;;9.38;5.13;;;;;;;16.25;84.97;97820.59;5042994;28;20460;-76
2023/07/27 09:14:04;;;;;;;5.32;4.47;;;;;;;16.11;84.60;97818.84;5082447;28;20082;-77
2023/07/27 09:16:33;;;;;;;9.10;6.40;;;;;;;16.24;83.94;97812.75;5050908;28;20037;-76
2023/07/27 09:19:00;;;;;;;7.95;5.70;;;;;;;16.25;84.39;97815.16;5060641;28;20102;-75
2023/07/27 09:21:26;;;;;;;7.53;5.72;;;;;;;16.33;84.01;97809.09;5050062;28;20493;-76
2023/07/27 09:23:51;;;;;;;7.50;5.78;;;;;;;16.54;84.56;97813.22;5058518;28;20024;-76
2023/07/27 09:26:26;;;;;;;7.80;5.90;;;;;;;16.74;83.67;97795.78;5082915;28;20063;-77
2023/07/27 09:28:55;;;;;;;8.50;5.80;;;;;;;16.52;84.70;97799.06;5065063;28;20048;-77
2023/07/27 09:31:21;;;;;;;6.07;5.47;;;;;;;16.63;82.99;97791.59;5056934;28;20047;-77
2023/07/27 09:33:46;;;;;;;8.50;4.97;;;;;;;16.59;83.91;97794.09;5061103;28;20032;-76
2023/07/27 09:36:12;;;;;;;7.88;5.20;;;;;;;17.04;84.00;97789.09;5059971;28;20483;-76
2023/07/27 09:38:38;;;;;;;10.40;5.50;;;;;;;16.92;84.25;97791.47;5082564;28;20039;-76
2023/07/27 09:41:08;;;;;;;6.75;5.35;;;;;;;16.94;83.97;97791.97;5084177;28;20031;-78
2023/07/27 09:43:39;;;;;;;6.68;4.93;;;;;;;17.07;83.23;97774.91;5063006;28;20036;-77
2023/07/27 09:46:05;;;;;;;7.18;5.55;;;;;;;17.00;83.53;97788.06;5058939;28;20044;-76
2023/07/27 09:48:31;;;;;;;6.65;5.65;;;;;;;16.51;82.97;97775.72;5081828;28;20025;-77
2023/07/27 09:51:01;;;;;;;8.75;5.65;;;;;;;16.70;85.07;97783.06;5070116;28;20036;-76
2023/07/27 09:53:30;;;;;;;6.57;5.63;;;;;;;16.82;84.99;97781.56;5078914;28;20035;-77
2023/07/27 09:55:56;;;;;;;7.25;5.70;;;;;;;16.98;85.25;97773.97;5060376;28;20104;-75
2023/07/27 09:58:22;;;;;;;7.65;5.93;;;;;;;17.06;85.07;97763.19;5061016;28;20029;-75
2023/07/27 10:00:47;;;;;;;9.63;6.25;;;;;;;16.78;84.21;97774.28;5047928;28;20043;-75
2023/07/27 10:03:13;;;;;;;8.73;6.07;;;;;;;16.95;84.18;97771.81;5061020;28;20025;-74
2023/07/27 10:05:40;;;;;;;7.75;6.03;;;;;;;17.05;84.18;97758.06;5078862;28;20388;-75
2023/07/27 10:08:05;;;;;;;7.50;5.63;;;;;;;16.99;83.12;97751.88;5080244;28;20039;-75
2023/07/27 10:10:34;;;;;;;9.18;5.63;;;;;;;16.90;84.24;97761.00;5039750;28;20035;-74
2023/07/27 10:13:27;;;;;;;9.13;6.00;;;;;;;16.82;84.09;97745.38;5069650;28;20593;-74
2023/07/27 10:15:54;;;;;;;6.95;5.32;;;;;;;16.75;83.76;97753.09;5069501;28;20044;-74
2023/07/27 10:18:24;;;;;;;7.38;5.78;;;;;;;16.73;84.45;97744.44;5040659;28;20094;-75
2023/07/27 10:20:50;;;;;;;8.27;5.22;;;;;;;16.85;81.79;97747.50;5063304;28;20039;-76
2023/07/27 10:23:18;;;;;;;7.68;5.45;;;;;;;16.98;83.60;97741.31;5065574;28;20043;-76
2023/07/27 10:25:54;;;;;;;6.53;5.82;;;;;;;17.07;83.41;97739.53;5077993;28;20063;-76
2023/07/27 10:28:35;;;;;;;8.80;5.55;;;;;;;16.88;83.50;97733.31;5090161;28;20043;-75
2023/07/27 10:31:23;;;;;;;7.88;5.60;;;;;;;17.12;83.46;97742.16;5089957;28;20051;-74
2023/07/27 10:33:55;;;;;;;7.93;5.50;;;;;;;16.95;83.48;97737.28;5057076;28;20562;-76
2023/07/27 10:36:22;;;;;;;7.45;5.45;;;;;;;17.03;82.37;97735.78;5069616;28;20037;-76
2023/07/27 10:38:53;;;;;;;7.88;5.65;;;;;;;17.05;81.93;97733.56;5049405;28;20539;-75
2023/07/27 10:41:21;;;;;;;8.27;5.45;;;;;;;16.83;82.55;97736.09;5065081;28;20040;-75
2023/07/27 10:44:08;;;;;;;7.93;5.50;;;;;;;17.34;82.32;97734.16;5033055;28;20021;-75
2023/07/27 10:46:37;;;;;;;8.20;5.53;;;;;;;17.24;81.54;97731.63;5082059;28;20072;-76
2023/07/27 10:49:10;;;;;;;6.90;5.50;;;;;;;17.49;80.92;97731.19;5069711;28;20077;-76
2023/07/27 10:51:35;;;;;;;8.00;6.00;;;;;;;17.41;81.20;97729.13;5065705;28;20027;-76
2023/07/27 10:54:01;;;;;;;5.82;4.68;;;;;;;17.60;81.61;97729.91;5043939;28;20028;-76
2023/07/27 10:56:27;;;;;;;8.38;5.05;;;;;;;17.78;82.71;97718.09;5073595;28;20400;-76
2023/07/27 10:58:58;;;;;;;7.47;5.80;;;;;;;17.48;82.08;97718.66;5070197;28;20157;-76
2023/07/27 11:01:24;;;;;;;9.45;5.70;;;;;;;17.65;82.77;97723.56;5067618;28;20406;-75
2023/07/27 11:03:49;;;;;;;10.25;5.70;;;;;;;17.67;84.16;97711.25;5053640;28;20029;-76
2023/07/27 11:06:17;;;;;;;9.82;5.57;;;;;;;17.21;83.67;97713.16;5073965;28;20036;-76
2023/07/27 11:08:43;;;;;;;6.25;5.57;;;;;;;17.51;83.76;97711.81;5071065;28;20035;-76
2023/07/27 11:11:19;;;;;;;8.07;5.65;;;;;;;17.51;83.29;97706.34;5056707;28;20033;-75
2023/07/27 11:13:45;;;;;;;7.25;5.18;;;;;;;17.23;84.28;97710.94;5073192;28;20037;-75
2023/07/27 11:16:12;;;;;;;7.70;5.75;;;;;;;16.97;86.88;97707.03;5061363;28;20032;-75
2023/07/27 11:18:38;;;;;;;6.82;5.88;;;;;;;17.10;86.93;97701.66;5054808;28;20375;-76
2023/07/27 11:21:03;;;;;;;9.52;6.70;;;;;;;16.89;86.25;97694.13;5048230;28;20064;-75
2023/07/27 11:23:29;;;;;;;8.35;7.35;;;;;;;16.93;87.05;97689.69;5080862;28;20394;-75
2023/07/27 11:25:56;;;;;;;10.45;6.90;;;;;;;17.06;86.25;97681.56;5066070;28;20020;-75
2023/07/27 11:28:24;;;;;;;9.82;7.38;;;;;;;16.90;86.51;97682.94;5076758;28;20383;-75
2023/07/27 11:30:52;;;;;;;8.75;6.57;;;;;;;16.76;86.91;97678.56;5066339;28;20024;-75